createdAt,value
2018-04-01T00:01:06.645Z,4.62
2018-04-01T00:03:37.372Z,4.63
2018-04-01T00:06:10.761Z,4.65
2018-04-01T00:08:40.534Z,4.59
2018-04-01T00:11:11.246Z,4.64
2018-04-01T00:13:40.310Z,4.61
2018-04-01T00:16:16.549Z,4.57
2018-04-01T00:18:46.364Z,4.63
2018-04-01T00:21:25.115Z,4.64
2018-04-01T00:23:56.331Z,4.66
2018-04-01T00:26:26.908Z,4.62
2018-04-01T00:28:57.240Z,4.63
2018-04-01T00:31:27.289Z,4.72
2018-04-01T00:33:57.828Z,4.73
2018-04-01T00:36:31.589Z,4.67
2018-04-01T00:39:01.757Z,4.70
2018-04-01T00:41:32.291Z,4.82
2018-04-01T00:44:02.279Z,4.80
2018-04-01T00:46:32.973Z,4.84
2018-04-01T00:49:03.278Z,4.85
2018-04-01T00:51:34.139Z,4.83
2018-04-01T00:54:03.428Z,4.83
2018-04-01T00:56:35.640Z,4.84
2018-04-01T00:59:06.185Z,4.84
2018-04-01T01:01:40.700Z,4.91
2018-04-01T01:04:10.631Z,4.92
2018-04-01T01:06:40.629Z,4.90
2018-04-01T01:09:10.200Z,4.89
2018-04-01T01:11:47.025Z,4.95
2018-04-01T01:14:22.527Z,4.92
2018-04-01T01:16:52.944Z,4.87
2018-04-01T01:19:23.726Z,4.95
2018-04-01T01:21:54.265Z,4.94
2018-04-01T01:24:22.249Z,4.87
2018-04-01T01:26:57.516Z,4.84
2018-04-01T01:29:26.976Z,4.79
2018-04-01T01:31:57.273Z,4.74
2018-04-01T01:34:31.485Z,4.76
2018-04-01T01:37:00.163Z,4.77
2018-04-01T01:39:56.869Z,4.70
2018-04-01T01:42:27.482Z,4.68
2018-04-01T01:44:59.184Z,4.72
2018-04-01T01:47:29.774Z,4.71
2018-04-01T01:50:00.425Z,4.69
2018-04-01T01:52:31.341Z,4.73
2018-04-01T01:55:03.785Z,4.79
2018-04-01T01:57:32.651Z,4.75
2018-04-01T02:00:01.638Z,4.79
2018-04-01T02:02:32.172Z,4.77
2018-04-01T02:05:11.143Z,4.86
2018-04-01T02:07:43.841Z,4.78
2018-04-01T02:10:15.278Z,4.92
2018-04-01T02:12:47.138Z,5.00
2018-04-01T02:15:19.502Z,5.04
2018-04-01T02:17:50.158Z,4.99
2018-04-01T02:20:20.463Z,5.01
2018-04-01T02:22:58.571Z,5.07
2018-04-01T02:25:29.389Z,5.01
2018-04-01T02:27:59.478Z,4.98
2018-04-01T02:30:29.490Z,4.92
2018-04-01T02:33:03.859Z,4.85
2018-04-01T02:35:33.977Z,4.77
2018-04-01T02:38:08.121Z,4.68
2018-04-01T02:40:39.160Z,4.67
2018-04-01T02:43:21.014Z,4.61
2018-04-01T02:45:52.317Z,4.43
2018-04-01T02:48:22.150Z,4.32
2018-04-01T02:50:58.235Z,4.22
2018-04-01T02:53:29.711Z,4.16
2018-04-01T02:56:04.225Z,4.12
2018-04-01T02:58:34.646Z,4.05
2018-04-01T03:01:13.525Z,3.94
2018-04-01T03:03:45.122Z,3.82
2018-04-01T03:06:23.638Z,3.69
2018-04-01T03:08:54.259Z,3.65
2018-04-01T03:11:25.188Z,3.65
2018-04-01T03:13:54.649Z,3.78
2018-04-01T03:16:23.521Z,3.93
2018-04-01T03:18:53.576Z,3.96
2018-04-01T03:21:28.126Z,4.24
2018-04-01T03:23:57.697Z,4.34
2018-04-01T03:26:29.125Z,4.43
2018-04-01T03:28:59.244Z,4.54
2018-04-01T03:31:28.760Z,4.58
2018-04-01T03:33:57.457Z,4.56
2018-04-01T03:36:28.182Z,4.60
2018-04-01T03:38:57.973Z,4.54
2018-04-01T03:41:28.084Z,4.52
2018-04-01T03:43:56.317Z,4.53
2018-04-01T03:46:35.520Z,4.47
2018-04-01T03:49:05.968Z,4.43
2018-04-01T03:51:35.579Z,4.42
2018-04-01T03:54:06.165Z,4.40
2018-04-01T03:56:34.138Z,4.45
2018-04-01T03:59:04.867Z,4.37
2018-04-01T04:01:34.497Z,4.40
2018-04-01T04:04:04.327Z,4.42
2018-04-01T04:06:41.599Z,4.37
2018-04-01T04:09:12.008Z,4.34
2018-04-01T04:11:43.479Z,4.33
2018-04-01T04:14:14.792Z,4.30
2018-04-01T04:16:45.100Z,4.31
2018-04-01T04:19:30.903Z,4.44
2018-04-01T04:22:01.173Z,4.44
2018-04-01T04:24:32.870Z,4.45
2018-04-01T04:27:04.450Z,4.52
2018-04-01T04:29:35.393Z,4.43
2018-04-01T04:32:09.888Z,4.48
2018-04-01T04:34:40.341Z,4.40
2018-04-01T04:37:10.698Z,4.37
2018-04-01T04:39:44.457Z,4.46
2018-04-01T04:42:14.677Z,4.37
2018-04-01T04:44:45.090Z,4.35
2018-04-01T04:47:15.708Z,4.38
2018-04-01T04:50:00.831Z,4.37
2018-04-01T04:52:32.466Z,4.45
2018-04-01T04:55:02.942Z,4.53
2018-04-01T04:57:34.458Z,4.56
2018-04-01T05:00:05.856Z,4.52
2018-04-01T05:02:37.065Z,4.52
2018-04-01T05:05:07.406Z,4.52
2018-04-01T05:07:42.088Z,4.55
2018-04-01T05:10:12.081Z,4.57
2018-04-01T05:12:42.189Z,4.58
2018-04-01T05:15:12.515Z,4.58
2018-04-01T05:17:52.549Z,4.60
2018-04-01T05:20:22.400Z,4.59
2018-04-01T05:22:54.994Z,4.54
2018-04-01T05:25:25.206Z,4.58
2018-04-01T05:27:57.902Z,4.59
2018-04-01T05:30:28.573Z,4.64
2018-04-01T05:33:00.803Z,4.66
2018-04-01T05:35:32.774Z,4.65
2018-04-01T05:38:03.326Z,4.62
2018-04-01T05:40:32.525Z,4.62
2018-04-01T05:43:07.038Z,4.61
2018-04-01T05:45:37.367Z,4.66
2018-04-01T05:48:17.035Z,4.73
2018-04-01T05:50:46.372Z,4.78
2018-04-01T05:53:21.955Z,4.84
2018-04-01T05:55:52.978Z,4.90
2018-04-01T05:58:23.370Z,4.99
2018-04-01T06:00:55.920Z,4.98
2018-04-01T06:03:30.061Z,5.06
2018-04-01T06:06:02.228Z,5.09
2018-04-01T06:08:32.586Z,5.08
2018-04-01T06:11:03.329Z,5.13
2018-04-01T06:13:33.354Z,5.07
2018-04-01T06:16:05.134Z,5.09
2018-04-01T06:18:35.522Z,5.06
2018-04-01T06:21:06.881Z,5.05
2018-04-01T06:23:37.796Z,5.10
2018-04-01T06:26:07.117Z,5.09
2018-04-01T06:28:37.275Z,5.06
2018-04-01T06:31:07.620Z,5.06
2018-04-01T06:33:37.883Z,4.98
2018-04-01T06:36:10.776Z,5.03
2018-04-01T06:38:41.883Z,5.01
2018-04-01T06:41:12.164Z,4.95
2018-04-01T06:43:42.362Z,4.89
2018-04-01T06:46:14.685Z,4.77
2018-04-01T06:48:45.486Z,4.83
2018-04-01T06:51:22.451Z,4.76
2018-04-01T06:53:54.424Z,4.77
2018-04-01T06:56:28.578Z,4.80
2018-04-01T06:58:56.629Z,4.77
2018-04-01T07:01:24.573Z,4.86
2018-04-01T07:03:52.734Z,4.89
2018-04-01T07:06:20.745Z,4.96
2018-04-01T07:08:53.126Z,4.95
2018-04-01T07:11:21.109Z,5.04
2018-04-01T07:13:49.550Z,5.20
2018-04-01T07:16:19.991Z,5.33
2018-04-01T07:18:48.937Z,5.35
2018-04-01T07:21:17.068Z,5.39
2018-04-01T07:23:46.187Z,5.50
2018-04-01T07:26:21.744Z,5.55
2018-04-01T07:28:51.846Z,5.61
2018-04-01T07:31:22.951Z,5.59
2018-04-01T07:33:53.417Z,5.64
2018-04-01T07:36:26.967Z,5.70
2018-04-01T07:39:00.289Z,5.83
2018-04-01T07:41:34.899Z,5.85
2018-04-01T07:44:17.987Z,5.85
2018-04-01T07:46:54.653Z,5.90
2018-04-01T07:49:30.865Z,6.03
2018-04-01T07:52:07.865Z,6.09
2018-04-01T07:54:45.127Z,6.07
2018-04-01T07:57:24.465Z,6.04
2018-04-01T07:59:55.201Z,5.96
2018-04-01T08:02:30.340Z,5.78
2018-04-01T08:05:08.549Z,5.61
2018-04-01T08:07:39.436Z,5.56
2018-04-01T08:10:09.590Z,5.53
2018-04-01T08:12:40.937Z,5.42
2018-04-01T08:15:10.955Z,5.22
2018-04-01T08:17:53.035Z,5.09
2018-04-01T08:20:23.325Z,4.89
2018-04-01T08:22:54.378Z,4.72
2018-04-01T08:25:24.139Z,4.71
2018-04-01T08:28:05.328Z,4.78
2018-04-01T08:30:43.053Z,4.78
2018-04-01T08:33:14.265Z,4.84
2018-04-01T08:35:51.410Z,4.86
2018-04-01T08:38:23.794Z,4.93
2018-04-01T08:40:55.530Z,4.92
2018-04-01T08:43:26.035Z,4.90
2018-04-01T08:46:05.836Z,4.92
2018-04-01T08:48:51.699Z,4.94
2018-04-01T08:51:21.376Z,4.96
2018-04-01T08:53:53.166Z,4.95
2018-04-01T08:56:22.250Z,5.05
2018-04-01T08:58:58.681Z,5.20
2018-04-01T09:01:29.048Z,5.39
2018-04-01T09:04:07.454Z,5.56
2018-04-01T09:06:36.170Z,5.68
2018-04-01T09:09:07.507Z,5.84
2018-04-01T09:11:37.893Z,6.21
2018-04-01T09:14:10.898Z,6.56
2018-04-01T09:16:42.588Z,6.83
2018-04-01T09:19:12.095Z,7.07
2018-04-01T09:21:43.812Z,6.67
2018-04-01T09:24:13.973Z,6.69
2018-04-01T09:26:57.147Z,6.67
2018-04-01T09:29:27.911Z,6.65
2018-04-01T09:31:58.899Z,6.63
2018-04-01T09:34:29.476Z,6.47
2018-04-01T09:37:00.611Z,6.62
2018-04-01T09:39:32.502Z,6.61
2018-04-01T09:42:08.203Z,6.60
2018-04-01T09:44:42.215Z,6.68
2018-04-01T09:47:13.222Z,6.72
2018-04-01T09:49:42.905Z,6.83
2018-04-01T09:52:13.100Z,7.08
2018-04-01T09:54:45.817Z,7.29
2018-04-01T09:57:18.414Z,7.37
2018-04-01T09:59:50.697Z,7.26
2018-04-01T10:02:21.588Z,7.41
2018-04-01T10:05:00.755Z,7.92
2018-04-01T10:07:36.136Z,7.93
2018-04-01T10:10:11.186Z,8.31
2018-04-01T10:12:43.156Z,8.61
2018-04-01T10:15:13.159Z,8.28
2018-04-01T10:17:53.657Z,8.17
2018-04-01T10:20:24.566Z,8.17
2018-04-01T10:22:57.220Z,8.28
2018-04-01T10:25:28.004Z,8.20
2018-04-01T10:27:58.618Z,7.67
2018-04-01T10:30:30.411Z,7.73
2018-04-01T10:33:02.553Z,7.49
2018-04-01T10:35:34.829Z,7.44
2018-04-01T10:38:08.059Z,7.54
2018-04-01T10:40:40.493Z,7.63
2018-04-01T10:43:10.545Z,7.72
2018-04-01T10:45:53.999Z,8.14
2018-04-01T10:48:27.512Z,8.37
2018-04-01T10:50:56.013Z,8.53
2018-04-01T10:53:25.956Z,8.53
2018-04-01T10:55:53.885Z,8.70
2018-04-01T10:58:25.481Z,8.67
2018-04-01T11:00:56.163Z,8.53
2018-04-01T11:03:26.176Z,8.94
2018-04-01T11:05:56.642Z,8.78
2018-04-01T11:08:39.217Z,9.11
2018-04-01T11:11:09.111Z,9.14
2018-04-01T11:13:39.253Z,9.40
2018-04-01T11:16:08.818Z,9.25
2018-04-01T11:18:40.543Z,8.95
2018-04-01T11:21:11.074Z,9.03
2018-04-01T11:23:50.071Z,9.05
2018-04-01T11:26:19.874Z,8.82
2018-04-01T11:28:51.116Z,8.68
2018-04-01T11:31:21.290Z,8.65
2018-04-01T11:33:52.040Z,8.22
2018-04-01T11:36:20.614Z,7.94
2018-04-01T11:38:51.585Z,8.24
2018-04-01T11:41:21.736Z,8.36
2018-04-01T11:43:53.523Z,8.65
2018-04-01T11:46:23.078Z,8.55
2018-04-01T11:48:53.361Z,8.56
2018-04-01T11:51:31.384Z,8.26
2018-04-01T11:54:01.230Z,8.32
2018-04-01T11:56:46.946Z,8.59
2018-04-01T11:59:18.232Z,8.70
2018-04-01T12:01:52.333Z,8.55
2018-04-01T12:04:21.949Z,9.02
2018-04-01T12:06:52.245Z,9.31
2018-04-01T12:09:22.522Z,8.95
2018-04-01T12:11:52.269Z,8.98
2018-04-01T12:14:22.120Z,9.71
2018-04-01T12:16:52.160Z,10.18
2018-04-01T12:19:22.036Z,10.03
2018-04-01T12:21:51.530Z,9.95
2018-04-01T12:24:23.637Z,10.61
2018-04-01T12:26:53.120Z,10.63
2018-04-01T12:29:24.240Z,11.55
2018-04-01T12:31:54.458Z,12.66
2018-04-01T12:34:24.624Z,11.37
2018-04-01T12:36:54.386Z,10.28
2018-04-01T12:39:25.998Z,9.66
2018-04-01T12:41:55.630Z,9.63
2018-04-01T12:44:24.217Z,9.93
2018-04-01T12:46:53.841Z,9.27
2018-04-01T12:49:24.328Z,9.08
2018-04-01T12:51:54.794Z,9.26
2018-04-01T12:54:25.565Z,9.96
2018-04-01T12:56:55.020Z,12.39
2018-04-01T12:59:22.972Z,12.72
2018-04-01T13:01:53.560Z,11.19
2018-04-01T13:04:23.848Z,9.68
2018-04-01T13:06:54.231Z,8.50
2018-04-01T13:09:23.816Z,6.09
2018-04-01T13:11:53.802Z,5.12
2018-04-01T13:14:22.369Z,4.39
2018-04-01T13:16:52.754Z,4.07
2018-04-01T13:19:25.621Z,4.04
2018-04-01T13:21:55.835Z,4.31
2018-04-01T13:24:26.201Z,5.84
2018-04-01T13:26:55.406Z,7.30
2018-04-01T13:29:25.111Z,8.06
2018-04-01T13:31:54.980Z,9.19
2018-04-01T13:34:27.099Z,9.95
2018-04-01T13:36:55.701Z,10.09
2018-04-01T13:39:25.721Z,9.98
2018-04-01T13:41:55.078Z,11.37
2018-04-01T13:44:25.258Z,11.01
2018-04-01T13:46:54.799Z,9.17
2018-04-01T13:49:27.602Z,7.98
2018-04-01T13:51:56.924Z,8.04
2018-04-01T13:54:26.222Z,10.34
2018-04-01T13:56:54.525Z,11.32
2018-04-01T13:59:25.056Z,12.22
2018-04-01T14:01:54.077Z,11.53
2018-04-01T14:04:27.325Z,11.42
2018-04-01T14:06:56.007Z,10.20
2018-04-01T14:09:27.969Z,9.36
2018-04-01T14:11:57.649Z,9.01
2018-04-01T14:14:35.099Z,8.65
2018-04-01T14:17:04.926Z,8.13
2018-04-01T14:19:34.793Z,7.69
2018-04-01T14:22:06.627Z,7.51
2018-04-01T14:24:36.806Z,7.09
2018-04-01T14:27:06.744Z,6.72
2018-04-01T14:29:37.163Z,6.39
2018-04-01T14:32:06.098Z,6.10
2018-04-01T14:34:37.508Z,5.89
2018-04-01T14:37:06.883Z,5.70
2018-04-01T14:39:37.600Z,5.43
2018-04-01T14:42:07.997Z,5.37
2018-04-01T14:44:35.991Z,5.46
2018-04-01T14:47:06.127Z,5.54
2018-04-01T14:49:35.074Z,5.51
2018-04-01T14:52:06.071Z,5.72
2018-04-01T14:54:37.966Z,6.01
2018-04-01T14:57:06.465Z,6.42
2018-04-01T14:59:35.851Z,6.86
2018-04-01T15:02:07.698Z,8.42
2018-04-01T15:04:39.937Z,10.43
2018-04-01T15:07:10.497Z,11.05
2018-04-01T15:09:49.662Z,11.03
2018-04-01T15:12:21.021Z,10.03
2018-04-01T15:14:52.253Z,10.56
2018-04-01T15:17:25.223Z,9.72
2018-04-01T15:19:56.965Z,9.81
2018-04-01T15:22:31.029Z,8.87
2018-04-01T15:25:00.543Z,9.99
2018-04-01T15:27:35.516Z,9.42
2018-04-01T15:30:06.048Z,8.49
2018-04-01T15:32:37.462Z,7.95
2018-04-01T15:35:13.894Z,7.51
2018-04-01T15:37:45.096Z,7.32
2018-04-01T15:40:15.422Z,7.19
2018-04-01T15:42:50.709Z,7.08
2018-04-01T15:45:24.927Z,6.87
2018-04-01T15:47:58.286Z,6.72
2018-04-01T15:50:29.479Z,6.64
2018-04-01T15:53:00.999Z,6.68
2018-04-01T15:55:38.690Z,6.61
2018-04-01T15:58:11.898Z,6.72
2018-04-01T16:00:41.549Z,6.75
2018-04-01T16:03:18.327Z,7.41
2018-04-01T16:05:54.270Z,8.06
2018-04-01T16:08:31.336Z,7.50
2018-04-01T16:11:06.027Z,7.23
2018-04-01T16:13:37.334Z,7.24
2018-04-01T16:16:14.477Z,7.28
2018-04-01T16:18:48.593Z,7.22
2018-04-01T16:21:25.714Z,7.01
2018-04-01T16:23:57.645Z,6.88
2018-04-01T16:26:43.499Z,6.78
2018-04-01T16:29:16.658Z,6.59
2018-04-01T16:31:54.959Z,6.73
2018-04-01T16:34:36.043Z,6.51
2018-04-01T16:37:06.731Z,6.36
2018-04-01T16:39:36.752Z,6.16
2018-04-01T16:42:11.289Z,5.99
2018-04-01T16:44:46.487Z,5.87
2018-04-01T16:47:17.183Z,5.78
2018-04-01T16:49:47.312Z,5.68
2018-04-01T16:52:17.935Z,5.65
2018-04-01T16:54:51.702Z,5.62
2018-04-01T16:57:22.952Z,5.51
2018-04-01T16:59:53.945Z,5.48
2018-04-01T17:02:25.648Z,5.60
2018-04-01T17:04:59.722Z,5.69
2018-04-01T17:07:32.178Z,5.66
2018-04-01T17:10:04.997Z,5.63
2018-04-01T17:12:37.294Z,5.47
2018-04-01T17:15:12.217Z,5.47
2018-04-01T17:17:42.924Z,5.51
2018-04-01T17:20:12.476Z,5.41
2018-04-01T17:22:44.697Z,5.45
2018-04-01T17:25:17.096Z,5.32
2018-04-01T17:27:52.110Z,5.18
2018-04-01T17:33:03.154Z,5.14
2018-04-01T17:35:34.830Z,5.10
2018-04-01T17:38:02.781Z,5.13
2018-04-01T17:40:33.525Z,5.04
2018-04-01T17:43:03.005Z,5.09
2018-04-01T17:45:33.720Z,4.94
2018-04-01T17:48:01.734Z,4.85
2018-04-01T17:50:29.675Z,4.72
2018-04-01T17:53:00.198Z,4.62
2018-04-01T17:55:30.192Z,4.47
2018-04-01T17:58:05.380Z,4.49
2018-04-01T18:00:40.930Z,4.45
2018-04-01T18:03:16.629Z,4.40
2018-04-01T18:05:50.112Z,4.48
2018-04-01T18:08:19.715Z,4.47
2018-04-01T18:10:51.802Z,4.50
2018-04-01T18:13:26.446Z,4.53
2018-04-01T18:15:58.622Z,4.49
2018-04-01T18:18:34.262Z,4.52
2018-04-01T18:21:08.142Z,4.54
2018-04-01T18:23:41.029Z,4.51
2018-04-01T18:26:12.339Z,4.56
2018-04-01T18:28:42.430Z,4.61
2018-04-01T18:31:15.603Z,4.62
2018-04-01T18:33:50.339Z,4.59
2018-04-01T18:36:27.286Z,4.61
2018-04-01T18:38:58.284Z,4.62
2018-04-01T18:41:32.854Z,4.68
2018-04-01T18:44:10.501Z,4.72
2018-04-01T18:46:47.206Z,4.67
2018-04-01T18:49:22.114Z,4.74
2018-04-01T18:51:55.643Z,4.61
2018-04-01T18:54:26.310Z,4.53
2018-04-01T18:56:58.774Z,4.59
2018-04-01T18:59:30.002Z,4.58
2018-04-01T19:02:01.823Z,4.48
2018-04-01T19:04:32.516Z,4.51
2018-04-01T19:07:06.587Z,4.46
2018-04-01T19:09:37.229Z,4.53
2018-04-01T19:12:07.030Z,4.52
2018-04-01T19:14:35.033Z,4.55
2018-04-01T19:17:04.510Z,4.58
2018-04-01T19:19:33.927Z,4.61
2018-04-01T19:22:02.437Z,4.57
2018-04-01T19:24:32.657Z,4.52
2018-04-01T19:27:07.652Z,4.60
2018-04-01T19:29:38.748Z,4.55
2018-04-01T19:32:10.630Z,4.41
2018-04-01T19:34:46.384Z,4.30
2018-04-01T19:37:21.111Z,4.16
2018-04-01T19:40:02.514Z,4.17
2018-04-01T19:42:35.565Z,4.19
2018-04-01T19:45:08.567Z,4.13
2018-04-01T19:47:42.984Z,4.10
2018-04-01T19:50:15.267Z,4.04
2018-04-01T19:52:48.723Z,4.10
2018-04-01T19:55:21.020Z,4.14
2018-04-01T19:57:54.101Z,4.21
2018-04-01T20:00:25.702Z,4.23
2018-04-01T20:02:58.409Z,4.25
2018-04-01T20:05:29.747Z,4.25
2018-04-01T20:08:10.293Z,4.35
2018-04-01T20:10:42.534Z,4.45
2018-04-01T20:13:19.028Z,4.49
2018-04-01T20:16:09.197Z,4.46
2018-04-01T20:18:41.329Z,4.52
2018-04-01T20:21:13.822Z,4.53
2018-04-01T20:23:48.584Z,4.59
2018-04-01T20:26:21.203Z,4.64
2018-04-01T20:28:53.609Z,4.65
2018-04-01T20:31:32.053Z,4.68
2018-04-01T20:34:04.601Z,4.74
2018-04-01T20:36:38.502Z,4.74
2018-04-01T20:39:12.691Z,4.76
2018-04-01T20:41:44.165Z,4.82
2018-04-01T20:44:18.257Z,4.83
2018-04-01T20:46:51.632Z,4.83
2018-04-01T20:49:22.948Z,4.85
2018-04-01T20:51:55.248Z,4.78
2018-04-01T20:54:30.466Z,4.82
2018-04-01T20:57:01.288Z,4.86
2018-04-01T20:59:32.443Z,4.88
2018-04-01T21:02:05.246Z,4.83
2018-04-01T21:04:47.758Z,4.79
2018-04-01T21:07:21.439Z,4.80
2018-04-01T21:09:53.345Z,4.85
2018-04-01T21:12:25.563Z,4.81
2018-04-01T21:14:58.179Z,4.76
2018-04-01T21:17:41.573Z,4.83
2018-04-01T21:20:16.920Z,4.80
2018-04-01T21:22:48.257Z,4.82
2018-04-01T21:25:22.117Z,4.71
2018-04-01T21:27:53.443Z,4.73
2018-04-01T21:30:26.073Z,4.75
2018-04-01T21:33:01.182Z,4.71
2018-04-01T21:35:36.695Z,4.79
2018-04-01T21:38:09.954Z,4.73
2018-04-01T21:40:42.201Z,4.70
2018-04-01T21:43:14.160Z,4.61
2018-04-01T21:45:48.123Z,4.65
2018-04-01T21:48:18.919Z,4.70
2018-04-01T21:50:48.292Z,4.79
2018-04-01T21:53:20.073Z,4.79
2018-04-01T21:56:00.516Z,4.81
2018-04-01T21:58:39.477Z,4.82
2018-04-01T22:01:10.039Z,4.83
2018-04-01T22:03:41.270Z,4.77
2018-04-01T22:06:11.916Z,4.75
2018-04-01T22:08:43.338Z,4.66
2018-04-01T22:11:14.650Z,4.66
2018-04-01T22:14:04.848Z,4.55
2018-04-01T22:16:39.095Z,4.45
2018-04-01T22:19:10.870Z,4.49
2018-04-01T22:21:42.404Z,4.52
2018-04-01T22:24:12.940Z,4.52
2018-04-01T22:26:57.331Z,4.58
2018-04-01T22:29:28.757Z,4.49
2018-04-01T22:31:58.403Z,4.63
2018-04-01T22:34:29.034Z,4.63
2018-04-01T22:37:00.331Z,4.61
2018-04-01T22:39:31.602Z,4.59
2018-04-01T22:42:04.931Z,4.59
2018-04-01T22:44:35.735Z,4.55
2018-04-01T22:47:06.916Z,4.55
2018-04-01T22:49:37.991Z,4.65
2018-04-01T22:52:14.547Z,4.56
2018-04-01T22:54:46.434Z,4.51
2018-04-01T22:57:18.121Z,4.53
2018-04-01T22:59:50.700Z,4.61
2018-04-01T23:02:24.046Z,4.51
2018-04-01T23:04:56.961Z,4.54
2018-04-01T23:07:27.374Z,4.52
2018-04-01T23:10:01.600Z,4.40
2018-04-01T23:12:32.936Z,4.49
2018-04-01T23:15:05.223Z,4.47
2018-04-01T23:17:36.480Z,4.43
2018-04-01T23:20:15.972Z,4.44
2018-04-01T23:22:46.658Z,4.42
2018-04-01T23:25:30.797Z,4.39
2018-04-01T23:28:02.491Z,4.40
2018-04-01T23:30:34.425Z,4.35
2018-04-01T23:33:07.061Z,4.29
2018-04-01T23:35:39.041Z,4.34
2018-04-01T23:38:14.153Z,4.27
2018-04-01T23:40:45.662Z,4.29
2018-04-01T23:43:16.869Z,4.24
2018-04-01T23:45:52.014Z,4.09
2018-04-01T23:48:22.480Z,4.02
2018-04-01T23:50:55.410Z,4.01
2018-04-01T23:53:26.594Z,3.91
2018-04-01T23:55:58.485Z,3.88
2018-04-01T23:58:30.348Z,3.94
